createdAt,value
2018-06-10T01:55:52.417Z,18.30
2018-06-10T01:58:23.384Z,18.30
2018-06-10T02:00:54.605Z,18.30
2018-06-10T02:03:26.207Z,18.20
2018-06-10T02:05:57.045Z,18.20
2018-06-10T02:08:27.951Z,18.20
2018-06-10T02:10:58.757Z,18.20
2018-06-10T02:13:29.558Z,18.10
2018-06-10T02:16:00.497Z,18.10
2018-06-10T02:18:31.394Z,18.10
2018-06-10T02:21:02.240Z,18.00
2018-06-10T02:23:33.099Z,18.10
2018-06-10T02:26:03.999Z,18.00
2018-06-10T02:28:34.857Z,18.00
2018-06-10T02:31:05.793Z,18.00
2018-06-10T02:33:36.645Z,18.00
2018-06-10T02:36:07.549Z,18.00
2018-06-10T02:38:38.353Z,18.00
2018-06-10T02:41:09.217Z,18.00
2018-06-10T02:43:40.124Z,17.90
2018-06-10T02:46:10.942Z,17.90
2018-06-10T02:48:41.802Z,17.90
2018-06-10T02:51:12.713Z,17.90
2018-06-10T02:53:43.632Z,17.90
2018-06-10T02:56:14.542Z,17.80
2018-06-10T02:58:45.368Z,17.80
2018-06-10T03:01:16.389Z,17.80
2018-06-10T03:03:47.290Z,17.80
2018-06-10T03:06:18.142Z,17.80
2018-06-10T03:08:48.972Z,17.70
2018-06-10T03:11:19.800Z,17.80
2018-06-10T03:13:50.630Z,17.80
2018-06-10T03:16:21.558Z,17.80
2018-06-10T03:18:52.551Z,17.80
2018-06-10T03:21:23.482Z,17.90
2018-06-10T03:23:54.272Z,17.80
2018-06-10T03:26:25.127Z,17.90
2018-06-10T03:28:55.964Z,17.90
2018-06-10T03:31:26.913Z,18.00
2018-06-10T03:33:57.761Z,18.00
2018-06-10T03:36:28.569Z,18.00
2018-06-10T03:38:59.524Z,18.00
2018-06-10T03:41:30.433Z,18.00
2018-06-10T03:44:01.416Z,18.00
2018-06-10T03:46:32.307Z,18.10
2018-06-10T03:49:03.468Z,18.10
2018-06-10T03:51:34.319Z,18.10
2018-06-10T03:54:05.258Z,18.10
2018-06-10T03:56:36.180Z,18.10
2018-06-10T03:59:07.091Z,18.10
2018-06-10T04:01:38.074Z,18.20
2018-06-10T04:04:09.109Z,18.30
2018-06-10T04:06:39.968Z,18.30
2018-06-10T04:09:10.963Z,18.30
2018-06-10T04:11:41.689Z,18.30
2018-06-10T04:14:12.570Z,18.30
2018-06-10T04:16:43.446Z,18.40
2018-06-10T04:19:14.172Z,18.50
2018-06-10T04:21:45.017Z,18.50
2018-06-10T04:24:16.729Z,18.50
2018-06-10T04:26:49.983Z,18.60
2018-06-10T04:29:20.769Z,18.70
2018-06-10T04:31:51.498Z,18.70
2018-06-10T04:34:22.267Z,18.70
2018-06-10T04:36:52.991Z,18.70
2018-06-10T04:41:55.094Z,18.80
2018-06-10T04:44:32.284Z,18.80
2018-06-10T04:47:07.387Z,18.80
2018-06-10T04:49:39.487Z,18.90
2018-06-10T04:52:10.439Z,18.90
2018-06-10T04:54:43.643Z,18.90
2018-06-10T04:57:25.003Z,19.00
2018-06-10T05:03:12.632Z,19.20
2018-06-10T05:08:13.863Z,19.40
2018-06-10T05:11:25.991Z,19.50
2018-06-10T05:14:16.676Z,19.60
2018-06-10T05:19:53.034Z,19.80
2018-06-10T05:22:24.288Z,19.90
2018-06-10T05:24:57.742Z,20.10
2018-06-10T05:27:28.552Z,20.30
2018-06-10T05:29:59.382Z,20.40
2018-06-10T05:35:00.315Z,20.90
2018-06-10T05:37:30.919Z,21.10
2018-06-10T05:40:01.752Z,21.40
2018-06-10T05:52:00.424Z,22.30
2018-06-10T05:54:31.412Z,22.50
2018-06-10T05:57:12.611Z,22.90
2018-06-10T05:59:50.046Z,23.50
2018-06-10T06:02:24.452Z,24.30
2018-06-10T06:04:55.574Z,24.70
2018-06-10T06:07:26.491Z,24.80
2018-06-10T06:10:00.141Z,24.70
2018-06-10T06:12:31.182Z,24.80
2018-06-10T06:15:04.324Z,25.10
2018-06-10T06:17:35.182Z,25.10
2018-06-10T06:20:06.991Z,25.70
2018-06-10T06:25:08.719Z,27.30
2018-06-10T06:27:39.485Z,27.80
2018-06-10T06:30:12.517Z,28.30
2018-06-10T06:32:43.475Z,28.60
2018-06-10T06:35:14.321Z,29.40
2018-06-10T06:37:45.134Z,30.50
2018-06-10T06:40:15.868Z,31.20
2018-06-10T06:42:46.679Z,31.70
2018-06-10T06:45:17.468Z,31.60
2018-06-10T06:47:48.245Z,31.90
2018-06-10T06:50:19.153Z,32.80
2018-06-10T06:52:50.179Z,34.00
2018-06-10T06:55:20.985Z,34.60
2018-06-10T06:57:51.866Z,35.40
2018-06-10T07:05:23.431Z,36.60
2018-06-10T07:07:57.679Z,36.80
2018-06-10T07:12:58.893Z,36.80
2018-06-10T07:15:29.868Z,37.10
2018-06-10T07:18:00.773Z,37.00
2018-06-10T07:20:31.822Z,36.80
2018-06-10T07:23:02.679Z,37.50
2018-06-10T07:25:33.560Z,37.30
2018-06-10T07:28:05.263Z,37.50
2018-06-10T07:30:37.379Z,38.00
2018-06-10T07:33:09.361Z,38.30
2018-06-10T07:35:40.271Z,38.30
2018-06-10T07:40:42.442Z,36.70
2018-06-10T07:45:43.496Z,35.10
2018-06-10T07:50:45.080Z,34.30
2018-06-10T07:53:15.817Z,34.40
2018-06-10T07:55:46.755Z,33.80
2018-06-10T07:58:18.305Z,33.50
2018-06-10T08:00:49.428Z,33.80
2018-06-10T08:05:50.586Z,33.90
2018-06-10T08:08:24.396Z,33.90
2018-06-10T08:10:55.103Z,33.40
2018-06-10T08:13:25.932Z,33.70
2018-06-10T08:15:56.739Z,33.80
2018-06-10T08:18:27.585Z,34.10
2018-06-10T08:20:58.556Z,34.10
2018-06-10T08:23:30.430Z,34.70
2018-06-10T08:26:01.242Z,34.60
2018-06-10T08:28:32.098Z,34.40
2018-06-10T08:31:02.891Z,34.20
2018-06-10T08:33:33.852Z,34.20
2018-06-10T08:36:04.701Z,35.00
2018-06-10T08:38:35.401Z,35.60
2018-06-10T08:41:06.154Z,35.70
2018-06-10T08:43:38.044Z,36.50
2018-06-10T08:46:12.772Z,37.40
2018-06-10T08:51:14.101Z,37.80
2018-06-10T08:53:44.939Z,37.20
2018-06-10T08:56:15.857Z,36.60
2018-06-10T08:58:46.893Z,36.10
2018-06-10T09:01:18.661Z,35.90
2018-06-10T09:03:49.510Z,35.60
2018-06-10T09:06:20.411Z,36.00
2018-06-10T09:08:51.139Z,36.00
2018-06-10T09:11:22.102Z,35.80
2018-06-10T09:13:53.344Z,35.90
2018-06-10T09:16:24.444Z,35.90
2018-06-10T09:18:55.291Z,35.80
2018-06-10T09:21:26.155Z,36.20
2018-06-10T09:23:56.963Z,36.50
2018-06-10T09:26:27.651Z,36.20
2018-06-10T09:28:58.275Z,36.60
2018-06-10T09:31:29.144Z,36.60
2018-06-10T09:33:59.884Z,36.30
2018-06-10T09:36:30.611Z,36.00
2018-06-10T09:39:01.352Z,35.70
2018-06-10T09:44:02.216Z,36.00
2018-06-10T09:46:32.903Z,36.20
2018-06-10T09:49:03.621Z,36.30
2018-06-10T09:51:34.317Z,36.40
2018-06-10T09:54:05.198Z,36.60
2018-06-10T09:56:35.907Z,36.90
2018-06-10T09:59:06.611Z,37.30
2018-06-10T10:01:37.454Z,37.30
2018-06-10T10:04:08.249Z,36.90
2018-06-10T10:06:39.144Z,36.90
2018-06-10T10:09:10.171Z,37.20
2018-06-10T10:11:41.076Z,37.40
2018-06-10T10:14:12.160Z,37.70
2018-06-10T10:16:43.029Z,38.00
2018-06-10T10:19:13.885Z,37.80
2018-06-10T10:21:44.526Z,37.60
2018-06-10T10:24:15.182Z,37.60
2018-06-10T10:26:46.018Z,37.50
2018-06-10T10:29:16.980Z,37.80
2018-06-10T10:31:47.714Z,37.70
2018-06-10T10:34:18.407Z,37.40
2018-06-10T10:36:49.153Z,37.10
2018-06-10T10:39:19.876Z,37.10
2018-06-10T10:44:20.611Z,36.50
2018-06-10T10:46:51.405Z,36.50
2018-06-10T10:49:22.085Z,36.80
2018-06-10T10:51:52.759Z,36.80
2018-06-10T10:54:23.412Z,36.70
2018-06-10T10:56:54.067Z,36.70
2018-06-10T10:59:24.708Z,36.70
2018-06-10T11:04:25.636Z,37.10
2018-06-10T11:06:56.833Z,37.20
2018-06-10T11:09:27.600Z,37.40
2018-06-10T11:12:04.290Z,36.80
2018-06-10T11:14:34.961Z,36.60
2018-06-10T11:17:05.686Z,36.50
2018-06-10T11:22:06.793Z,36.40
2018-06-10T11:24:37.517Z,36.60
2018-06-10T11:27:08.199Z,36.40
2018-06-10T11:29:38.865Z,36.50
2018-06-10T11:32:09.565Z,36.30
2018-06-10T11:34:40.241Z,36.30
2018-06-10T11:37:10.897Z,36.40
2018-06-10T11:39:41.637Z,36.50
2018-06-10T11:42:12.364Z,36.60
2018-06-10T11:44:43.159Z,36.60
2018-06-10T11:47:13.828Z,36.60
2018-06-10T11:49:44.598Z,36.50
2018-06-10T11:52:15.449Z,36.80
2018-06-10T11:54:46.051Z,36.80
2018-06-10T11:57:16.721Z,36.60
2018-06-10T11:59:47.488Z,36.50
2018-06-10T12:02:18.171Z,36.50
2018-06-10T12:07:19.239Z,36.30
2018-06-10T12:12:20.227Z,36.00
2018-06-10T12:14:51.088Z,36.00
2018-06-10T12:17:21.769Z,35.80
2018-06-10T12:19:52.757Z,35.70
2018-06-10T12:22:23.521Z,35.50
2018-06-10T12:27:24.695Z,34.90
2018-06-10T12:29:55.533Z,34.80
2018-06-10T12:32:26.216Z,34.60
2018-06-10T12:34:57.104Z,34.70
2018-06-10T12:37:27.940Z,34.80
2018-06-10T12:40:02.313Z,34.80
2018-06-10T12:42:33.626Z,34.80
2018-06-10T12:45:14.024Z,34.90
2018-06-10T12:47:44.750Z,34.70
2018-06-10T12:50:15.657Z,34.60
2018-06-10T12:52:46.521Z,34.70
2018-06-10T12:55:17.501Z,34.60
2018-06-10T12:57:48.264Z,34.70
2018-06-10T13:00:19.001Z,34.80
2018-06-10T13:02:49.759Z,34.70
2018-06-10T13:05:20.732Z,34.60
2018-06-10T13:07:51.620Z,34.40
2018-06-10T13:10:22.540Z,34.30
2018-06-10T13:12:53.445Z,34.20
2018-06-10T13:15:24.149Z,34.20
2018-06-10T13:17:54.953Z,34.10
2018-06-10T13:20:25.644Z,34.10
2018-06-10T13:22:56.467Z,33.90
2018-06-10T13:25:27.565Z,33.80
2018-06-10T13:27:58.338Z,33.80
2018-06-10T13:30:29.047Z,33.60
2018-06-10T13:32:59.893Z,33.50
2018-06-10T13:35:30.656Z,33.30
2018-06-10T13:38:01.321Z,33.10
2018-06-10T13:40:32.043Z,33.00
2018-06-10T13:45:33.567Z,32.90
2018-06-10T13:48:04.360Z,32.80
2018-06-10T13:50:35.165Z,32.60
2018-06-10T13:55:36.297Z,32.20
2018-06-10T13:58:07.094Z,32.30
2018-06-10T14:00:37.852Z,32.30
2018-06-10T14:03:08.792Z,32.20
2018-06-10T14:05:40.146Z,32.40
2018-06-10T14:08:11.034Z,32.50
2018-06-10T14:10:41.799Z,32.40
2018-06-10T14:13:12.579Z,32.60
2018-06-10T14:15:43.373Z,32.60
2018-06-10T14:18:14.466Z,32.40
2018-06-10T14:20:45.191Z,32.40
2018-06-10T14:23:22.230Z,32.30
2018-06-10T14:25:53.330Z,32.00
2018-06-10T14:28:24.180Z,32.00
2018-06-10T14:30:54.970Z,32.00
2018-06-10T14:33:25.711Z,31.80
2018-06-10T14:35:56.509Z,31.90
2018-06-10T14:38:27.266Z,32.00
2018-06-10T14:40:58.000Z,32.10
2018-06-10T14:43:28.707Z,32.00
2018-06-10T14:45:59.358Z,32.00
2018-06-10T14:48:29.969Z,31.90
2018-06-10T14:51:01.295Z,31.90
2018-06-10T14:53:31.896Z,31.70
2018-06-10T14:56:02.505Z,31.60
2018-06-10T14:58:33.248Z,31.50
2018-06-10T15:01:04.973Z,31.30
2018-06-10T15:03:35.941Z,31.20
2018-06-10T15:06:09.155Z,31.10
2018-06-10T15:08:43.879Z,31.00
